Back to top

Gillette, WY weather

Gillette-Campbell County Airport (AMOS), Gillette, WY: 7/04/2020 01:53
Visibility10 statute milesclear sky
View 7-Day Forecast
Area Summary
Sky/CloudsSky Clear
Weather [last 24 hours]None
Pressure30.06 in.Hg (1018 hPa)
Dew Point53.1 °F (11.7 °C)
Relative Humidity77.6 %
Temperature60.1 °F (15.6 °C)red thermometer
Reading TimeMinimum to Maximum Temperature
6-hr ending 7/3@23:5362.1 °F to 90 °F (16.7 °C to 32.2 °C)
6-hr ending 7/3@17:5382 °F to 93 °F (27.8 °C to 33.9 °C)
6-hr ending 7/3@11:5354 °F to 82.9 °F (12.2 °C to 28.3 °C)
6-hr ending 7/3@05:5352 °F to 62.1 °F (11.1 °C to 16.7 °C)
24-hr ending 7/4@00:5352 °F to 93 °F (11.1 °C to 33.9 °C)
Wind8.06 MPH (7 KT) green arrow pointing 270 degrees
Wind FromWest (270 Degrees)
Rolling 24-hr Peak Wind38 MPH (33 KT) on 7/3@16:08
Rolling 24-hr Peak Wind FromWest/Northwest (290 Degrees)
Twilight Begins04:46Sunshine Yesterday
Sunrise05:23N/A
Sunset20:51
Twilight Ends21:27
METARKGCC 040753Z AUTO 27007KT 10SM CLR 16/12 A3006 RMK AO2 SLP128 T01560117
Tags: